Time;durP1;ratioP1;P1;durP2;ratioP2;P2;SDS_P1;SDS_P2;PMS_P1;PMS_P2;Temp;Humidity;BMP_temperature;BMP_pressure;BME280_temperature;BME280_humidity;BME280_pressure;Samples;Min_cycle;Max_cycle;Signal;HPM_P1;HPM_P2
2022/10/06 00:01:57;;;;;;;13.30;2.47;;;10.50;99.90;;;9.76;100.00;102557.91;5072951;23;20054;-76
2022/10/06 00:03:57;;;;;;;15.05;2.60;;;10.50;99.90;;;9.79;100.00;102568.25;5073470;23;20010;-76
2022/10/06 00:06:01;;;;;;;12.07;3.50;;;10.40;99.90;;;9.79;100.00;102562.97;5099032;23;20005;-76
2022/10/06 00:08:02;;;;;;;12.32;2.22;;;10.50;99.90;;;9.79;100.00;102568.25;5073270;23;20018;-76
2022/10/06 00:10:05;;;;;;;14.88;3.05;;;10.40;99.90;;;9.78;100.00;102570.97;5098780;23;20010;-76
2022/10/06 00:12:07;;;;;;;14.57;2.47;;;10.40;99.90;;;9.78;100.00;102577.09;5073242;23;20012;-76
2022/10/06 00:14:08;;;;;;;16.17;2.38;;;10.40;99.90;;;9.78;100.00;102582.34;5099053;23;20066;-76
2022/10/06 00:16:20;;;;;;;19.45;3.05;;;10.40;99.90;;;9.77;100.00;102577.16;5098643;23;20006;-76
2022/10/06 00:18:21;;;;;;;12.88;2.75;;;10.40;99.90;;;9.74;100.00;102578.22;5073721;23;20486;-76
2022/10/06 00:20:24;;;;;;;9.32;2.20;;;10.40;99.90;;;9.69;100.00;102574.22;5073075;23;20002;-76
2022/10/06 00:22:24;;;;;;;13.55;2.03;;;10.40;99.90;;;9.75;100.00;102593.09;5048606;23;20034;-76
2022/10/06 00:24:26;;;;;;;9.52;2.58;;;10.40;99.90;;;9.72;100.00;102589.84;5099076;23;20009;-76
2022/10/06 00:26:27;;;;;;;16.42;2.63;;;10.30;99.90;;;9.69;100.00;102588.25;5072772;23;20016;-76
2022/10/06 00:28:27;;;;;;;11.20;3.40;;;10.40;99.90;;;9.66;100.00;102593.75;5097418;23;20423;-76
2022/10/06 00:30:30;;;;;;;12.02;2.92;;;10.40;99.90;;;9.65;100.00;102589.41;5072391;23;20009;-76
2022/10/06 00:32:31;;;;;;;16.60;2.72;;;10.30;99.90;;;9.62;100.00;102591.41;5098894;23;20053;-76
2022/10/06 00:34:32;;;;;;;13.40;2.63;;;10.30;99.90;;;9.58;100.00;102585.53;5048509;23;20355;-76
2022/10/06 00:36:32;;;;;;;13.45;2.58;;;10.30;99.90;;;9.58;100.00;102587.31;5072614;23;20021;-76
2022/10/06 00:38:34;;;;;;;15.60;3.05;;;10.30;99.90;;;9.58;100.00;102593.44;5072881;23;20399;-76
2022/10/06 00:40:41;;;;;;;8.25;1.92;;;10.30;99.90;;;9.56;100.00;102597.13;5097241;23;20067;-76
2022/10/06 00:42:56;;;;;;;16.05;2.97;;;10.20;99.90;;;9.53;100.00;102592.88;5073715;23;20002;-76
2022/10/06 00:45:02;;;;;;;12.63;1.90;;;10.20;99.90;;;9.50;100.00;102598.34;5098722;23;20089;-76
2022/10/06 00:47:03;;;;;;;14.23;2.55;;;10.20;99.90;;;9.48;100.00;102600.25;5072617;23;20542;-76
2022/10/06 00:49:15;;;;;;;10.55;1.92;;;10.20;99.90;;;9.47;100.00;102603.81;5097331;23;20029;-76
2022/10/06 00:51:17;;;;;;;14.55;2.50;;;10.20;99.90;;;9.45;100.00;102605.72;5072924;23;20077;-76
2022/10/06 00:53:18;;;;;;;15.77;2.00;;;10.20;99.90;;;9.46;100.00;102607.44;5072989;23;20006;-76
2022/10/06 00:55:21;;;;;;;14.50;2.53;;;10.10;99.90;;;9.45;100.00;102613.63;5072491;23;20006;-76
2022/10/06 00:57:22;;;;;;;17.10;2.97;;;10.10;99.90;;;9.42;100.00;102613.84;5098237;23;20118;-76
2022/10/06 00:59:23;;;;;;;12.93;2.25;;;10.10;99.90;;;9.37;100.00;102610.69;5098660;23;20056;-76
2022/10/06 01:01:25;;;;;;;14.80;3.15;;;10.10;99.90;;;9.35;100.00;102610.75;5098278;23;20033;-76
2022/10/06 01:03:36;;;;;;;16.02;2.38;;;10.00;99.90;;;9.27;100.00;102604.31;5048364;23;20404;-76
2022/10/06 01:05:45;;;;;;;15.57;3.10;;;10.00;99.90;;;9.29;100.00;102616.44;5072454;23;20010;-76
2022/10/06 01:07:46;;;;;;;15.05;3.15;;;10.00;99.90;;;9.25;100.00;102609.72;5073233;23;20006;-76
2022/10/06 01:09:47;;;;;;;12.68;2.65;;;10.00;99.90;;;9.23;100.00;102611.56;5072861;23;20006;-76
2022/10/06 01:11:52;;;;;;;13.93;2.05;;;10.00;99.90;;;9.23;100.00;102621.25;5072946;23;20082;-76
2022/10/06 01:13:54;;;;;;;10.15;1.95;;;9.90;99.90;;;9.17;100.00;102616.44;5048621;23;20089;-76
2022/10/06 01:16:23;;;;;;;15.05;2.88;;;9.90;99.90;;;9.16;100.00;102618.22;5072277;23;20425;-76
2022/10/06 01:18:27;;;;;;;9.05;2.30;;;9.90;99.90;;;9.13;100.00;102613.16;5073645;23;20006;-76
2022/10/06 01:20:28;;;;;;;15.43;2.78;;;9.90;99.90;;;9.13;100.00;102623.69;5048295;23;20408;-76
2022/10/06 01:22:38;;;;;;;10.40;1.67;;;9.90;99.90;;;9.10;100.00;102628.28;5096979;23;20045;-76
2022/10/06 01:24:39;;;;;;;11.57;2.08;;;9.80;99.90;;;9.01;100.00;102632.38;5098626;23;20005;-76
2022/10/06 01:26:47;;;;;;;10.93;2.35;;;9.80;99.90;;;8.95;100.00;102632.78;5072719;23;20064;-76
2022/10/06 01:28:48;;;;;;;14.70;3.15;;;9.70;99.90;;;8.91;100.00;102636.53;5073212;23;20115;-76
2022/10/06 01:30:53;;;;;;;17.92;2.40;;;9.70;99.90;;;8.85;100.00;102622.00;5072390;23;20002;-76
2022/10/06 01:32:54;;;;;;;9.50;2.00;;;9.60;99.90;;;8.86;100.00;102630.75;5072888;23;20010;-76
2022/10/06 01:34:55;;;;;;;13.25;2.50;;;9.60;99.90;;;8.83;100.00;102620.41;5072676;23;20002;-76
2022/10/06 01:36:56;;;;;;;14.18;2.88;;;9.60;99.90;;;8.81;100.00;102633.66;5098227;23;20014;-76
2022/10/06 01:38:57;;;;;;;12.25;2.67;;;9.60;99.90;;;8.80;100.00;102636.41;5098608;23;20005;-76
2022/10/06 01:40:58;;;;;;;17.38;4.15;;;9.60;99.90;;;8.78;100.00;102646.19;5098429;23;20032;-76
2022/10/06 01:42:59;;;;;;;14.27;2.90;;;9.50;99.90;;;8.74;100.00;102631.53;5072556;23;20002;-76
2022/10/06 01:45:00;;;;;;;12.32;2.38;;;9.50;99.90;;;8.76;100.00;102622.59;5072235;23;20018;-76
2022/10/06 01:47:05;;;;;;;12.27;2.47;;;9.50;99.90;;;8.77;100.00;102628.69;5096926;23;19997;-76
2022/10/06 01:49:06;;;;;;;13.60;2.53;;;9.50;99.90;;;8.77;100.00;102626.91;5072546;23;20010;-76
2022/10/06 01:51:11;;;;;;;14.98;1.95;;;9.50;99.90;;;8.78;100.00;102627.75;5098347;23;20342;-76
2022/10/06 01:53:12;;;;;;;15.55;2.60;;;9.50;99.90;;;8.85;100.00;102629.03;5073505;23;20073;-76
2022/10/06 01:55:13;;;;;;;10.15;2.50;;;9.60;99.90;;;8.87;100.00;102630.63;5098339;23;20002;-76
2022/10/06 01:57:14;;;;;;;16.42;2.80;;;9.60;99.90;;;8.89;100.00;102633.16;5098304;23;20080;-76
2022/10/06 01:59:15;;;;;;;18.30;3.92;;;9.60;99.90;;;8.89;100.00;102633.16;5098325;23;20009;-76
2022/10/06 02:01:16;;;;;;;18.38;2.50;;;9.60;99.90;;;8.86;100.00;102634.22;5098005;23;20445;-76
2022/10/06 02:03:17;;;;;;;17.08;2.40;;;9.60;99.90;;;8.82;100.00;102632.72;5096714;23;20090;-76
2022/10/06 02:05:18;;;;;;;17.80;2.20;;;9.60;99.90;;;8.82;100.00;102634.50;5072624;23;20002;-76
2022/10/06 02:07:18;;;;;;;11.15;2.00;;;9.60;99.90;;;8.69;100.00;102637.06;5098214;23;20006;-76
2022/10/06 02:09:20;;;;;;;15.60;1.55;;;9.50;99.90;;;8.57;100.00;102632.56;5098495;23;20005;-76
2022/10/06 02:11:21;;;;;;;7.18;1.90;;;9.40;99.90;;;8.48;100.00;102648.97;5048111;23;20360;-76
2022/10/06 02:13:26;;;;;;;7.47;1.80;;;9.30;99.90;;;8.32;100.00;102628.03;5098306;23;20010;-76
2022/10/06 02:15:31;;;;;;;10.80;2.42;;;9.20;99.90;;;8.27;100.00;102645.00;5072209;23;20045;-76
2022/10/06 02:17:32;;;;;;;11.68;2.00;;;9.10;99.90;;;8.24;100.00;102647.81;5072946;23;20002;-76
2022/10/06 02:19:34;;;;;;;10.98;2.20;;;9.10;99.90;;;8.19;100.00;102649.88;5098244;23;20010;-76
2022/10/06 02:21:35;;;;;;;9.10;1.80;;;9.00;99.90;;;8.13;100.00;102645.84;5099856;23;20076;-76
2022/10/06 02:23:35;;;;;;;10.35;2.08;;;9.00;99.90;;;8.07;100.00;102640.94;5073964;23;20009;-76
2022/10/06 02:25:36;;;;;;;10.23;1.33;;;8.90;99.90;;;7.99;100.00;102634.47;5073920;23;20002;-76
2022/10/06 02:27:38;;;;;;;10.43;2.28;;;8.80;99.90;;;7.98;100.00;102636.25;5099871;23;20323;-76
2022/10/06 02:29:39;;;;;;;7.93;1.95;;;8.80;99.90;;;7.95;100.00;102639.06;5099982;23;20371;-76
2022/10/06 02:31:40;;;;;;;4.10;1.40;;;8.80;99.90;;;7.90;100.00;102643.75;5099456;23;20012;-76
2022/10/06 02:33:42;;;;;;;3.78;1.17;;;8.70;99.90;;;7.89;100.00;102638.59;5073868;23;20021;-76
2022/10/06 02:35:44;;;;;;;11.35;1.73;;;8.70;99.90;;;7.84;100.00;102636.25;5099547;23;20005;-76
2022/10/06 02:37:44;;;;;;;6.93;1.58;;;8.70;99.90;;;7.87;100.00;102645.72;5073762;23;20006;-76
2022/10/06 02:39:46;;;;;;;10.95;1.73;;;8.70;99.90;;;7.85;100.00;102644.97;5073752;23;20414;-76
2022/10/06 02:41:46;;;;;;;9.82;2.08;;;8.60;99.90;;;7.87;100.00;102648.34;5099694;23;20423;-76
2022/10/06 02:43:47;;;;;;;18.65;2.67;;;8.60;99.90;;;7.88;100.00;102644.81;5099665;23;20029;-76
2022/10/06 02:45:57;;;;;;;11.20;1.77;;;8.60;99.90;;;7.87;100.00;102650.97;5099347;23;20335;-76
2022/10/06 02:47:58;;;;;;;11.65;2.08;;;8.60;99.90;;;7.79;100.00;102647.00;5074026;23;20048;-76
2022/10/06 02:50:01;;;;;;;11.10;2.22;;;8.60;99.90;;;7.82;100.00;102660.94;5073764;23;20005;-76
2022/10/06 02:52:02;;;;;;;12.50;2.03;;;8.60;99.90;;;7.76;100.00;102655.06;5073801;23;20016;-76
2022/10/06 02:54:03;;;;;;;12.00;2.50;;;8.60;99.90;;;7.70;100.00;102641.50;5099596;23;20013;-76
2022/10/06 02:56:09;;;;;;;8.40;2.20;;;8.60;99.90;;;7.75;100.00;102652.56;5049378;23;20014;-75
2022/10/06 02:58:10;;;;;;;8.75;1.98;;;8.60;99.90;;;7.72;100.00;102645.72;5073385;23;20366;-75
2022/10/06 03:00:13;;;;;;;6.22;1.40;;;8.50;99.90;;;7.75;100.00;102652.56;5097800;23;20044;-76
2022/10/06 03:02:14;;;;;;;10.57;1.70;;;8.50;99.90;;;7.72;100.00;102650.13;5099717;23;20498;-76
2022/10/06 03:04:15;;;;;;;10.45;1.90;;;8.50;99.90;;;7.70;100.00;102650.22;5073688;23;20079;-76
2022/10/06 03:06:22;;;;;;;5.45;1.52;;;8.50;99.90;;;7.67;100.00;102646.94;5099475;23;20025;-75
2022/10/06 03:08:23;;;;;;;10.40;2.15;;;8.50;99.90;;;7.66;100.00;102648.69;5074534;23;20013;-76
2022/10/06 03:10:24;;;;;;;13.70;2.10;;;8.50;99.90;;;7.65;100.00;102652.25;5099711;23;20010;-76
2022/10/06 03:12:25;;;;;;;9.95;2.00;;;8.50;99.90;;;7.63;100.00;102659.38;5073774;23;20013;-76
2022/10/06 03:14:26;;;;;;;10.18;2.83;;;8.40;99.90;;;7.59;100.00;102641.25;5099343;23;20071;-76
2022/10/06 03:16:49;;;;;;;9.00;1.98;;;8.40;99.90;;;7.61;100.00;102650.75;5073249;23;20057;-76
2022/10/06 03:18:52;;;;;;;9.55;2.50;;;8.40;99.90;;;7.63;100.00;102651.50;5073369;23;20010;-75
2022/10/06 03:20:58;;;;;;;9.73;2.60;;;8.40;99.90;;;7.66;100.00;102659.22;5099430;23;20413;-76
2022/10/06 03:22:59;;;;;;;13.07;3.00;;;8.40;99.90;;;7.65;100.00;102654.88;5049782;23;20003;-76
2022/10/06 03:24:59;;;;;;;10.30;2.50;;;8.50;99.90;;;7.67;100.00;102653.03;5049477;23;20432;-76
2022/10/06 03:27:01;;;;;;;7.97;2.10;;;8.50;99.90;;;7.66;100.00;102648.69;5099352;23;20002;-76
2022/10/06 03:29:03;;;;;;;12.00;2.00;;;8.50;99.90;;;7.67;100.00;102654.81;5073562;23;20006;-76
2022/10/06 03:31:05;;;;;;;8.18;2.25;;;8.50;99.90;;;7.66;100.00;102655.72;5072993;23;20006;-75
2022/10/06 03:33:06;;;;;;;8.18;2.10;;;8.50;99.90;;;7.65;100.00;102652.25;5073244;23;20008;-76
2022/10/06 03:35:07;;;;;;;12.18;2.17;;;8.50;99.90;;;7.64;100.00;102650.59;5073112;23;20002;-76
2022/10/06 03:37:08;;;;;;;12.95;2.53;;;8.50;99.90;;;7.70;100.00;102658.09;5073154;23;20014;-76
2022/10/06 03:39:09;;;;;;;13.93;2.22;;;8.50;99.90;;;7.70;100.00;102658.09;5074847;23;20340;-76
2022/10/06 03:41:14;;;;;;;11.70;2.55;;;8.50;99.90;;;7.69;100.00;102659.03;5075118;23;20010;-76
2022/10/06 03:43:14;;;;;;;10.40;2.38;;;8.50;99.90;;;7.69;100.00;102674.78;5073385;23;20009;-76
2022/10/06 03:45:15;;;;;;;6.93;1.95;;;8.50;99.90;;;7.67;100.00;102674.03;5074542;23;20002;-76
2022/10/06 03:47:16;;;;;;;12.50;2.42;;;8.50;99.90;;;7.61;100.00;102676.19;5074815;23;20002;-76
2022/10/06 03:49:17;;;;;;;10.07;2.65;;;8.50;99.90;;;7.52;100.00;102664.44;5074819;23;20002;-76
2022/10/06 03:51:28;;;;;;;13.98;2.75;;;8.40;99.90;;;7.54;100.00;102678.31;5073206;23;20013;-76
2022/10/06 03:53:30;;;;;;;10.45;2.78;;;8.40;99.90;;;7.52;100.00;102682.81;5073322;23;20006;-75
2022/10/06 03:55:31;;;;;;;8.32;2.17;;;8.40;99.90;;;7.53;100.00;102678.38;5073340;23;20025;-76
2022/10/06 03:57:32;;;;;;;12.13;2.08;;;8.30;99.90;;;7.51;100.00;102681.13;5072878;23;20006;-76
2022/10/06 03:59:33;;;;;;;8.40;2.13;;;8.30;99.90;;;7.38;100.00;102674.88;5072917;23;20006;-76
2022/10/06 04:01:38;;;;;;;7.10;2.00;;;8.30;99.90;;;7.36;100.00;102683.78;5073945;23;20343;-75
2022/10/06 04:03:39;;;;;;;11.10;2.03;;;8.20;99.90;;;7.28;100.00;102689.47;5074755;23;20001;-76
2022/10/06 04:05:53;;;;;;;10.10;2.35;;;8.10;99.90;;;7.24;100.00;102687.94;5073276;23;20002;-75
2022/10/06 04:07:53;;;;;;;9.02;1.73;;;8.10;99.90;;;7.21;100.00;102693.38;5048751;23;20325;-75
2022/10/06 04:09:54;;;;;;;8.10;1.67;;;8.10;99.90;;;7.18;100.00;102693.53;5073401;23;20053;-76
2022/10/06 04:11:55;;;;;;;8.52;2.25;;;8.00;99.90;;;7.12;100.00;102702.59;5072941;23;20379;-75
2022/10/06 04:14:02;;;;;;;11.48;1.98;;;8.00;99.90;;;7.12;100.00;102701.75;5097625;23;20017;-75
2022/10/06 04:16:11;;;;;;;9.57;1.90;;;8.00;99.90;;;7.13;100.00;102706.09;5070635;23;20014;-76
2022/10/06 04:18:14;;;;;;;10.18;3.25;;;7.90;99.90;;;7.15;100.00;102704.22;5074605;23;20006;-75
2022/10/06 04:20:15;;;;;;;11.43;2.78;;;8.00;99.90;;;7.16;100.00;102709.38;5073176;23;20006;-75
2022/10/06 04:22:16;;;;;;;12.23;2.38;;;7.90;99.90;;;7.21;100.00;102714.38;5074632;23;20056;-76
2022/10/06 04:24:17;;;;;;;7.95;1.80;;;8.00;99.90;;;7.21;100.00;102707.34;5074490;23;20002;-76
2022/10/06 04:26:20;;;;;;;8.07;1.73;;;8.00;99.90;;;7.17;100.00;102718.06;5074461;23;20006;-76
2022/10/06 04:28:21;;;;;;;10.40;2.53;;;8.00;99.90;;;7.13;100.00;102712.19;5073049;23;20013;-75
2022/10/06 04:30:23;;;;;;;9.70;1.88;;;8.00;99.90;;;7.06;100.00;102709.97;5072638;23;20014;-75
2022/10/06 04:32:24;;;;;;;8.32;2.00;;;7.90;99.90;;;7.02;100.00;102713.69;5074616;23;20006;-75
2022/10/06 04:34:25;;;;;;;7.88;2.30;;;7.90;99.90;;;6.95;100.00;102707.97;5074568;23;20102;-76
2022/10/06 04:36:31;;;;;;;5.32;1.38;;;7.80;99.90;;;6.95;100.00;102704.47;5072798;23;20440;-75
2022/10/06 04:38:34;;;;;;;11.77;2.67;;;7.80;99.90;;;6.98;100.00;102720.06;5074307;23;20016;-75
2022/10/06 04:40:35;;;;;;;7.38;1.50;;;7.80;99.90;;;6.99;100.00;102719.13;5074417;23;20002;-75
2022/10/06 04:42:36;;;;;;;9.68;2.17;;;7.80;99.90;;;6.97;100.00;102719.19;5073781;23;20343;-75
2022/10/06 04:44:37;;;;;;;7.07;1.85;;;7.80;99.90;;;6.94;100.00;102715.91;5074290;23;20033;-76
2022/10/06 04:46:38;;;;;;;6.80;2.22;;;7.80;99.90;;;6.92;100.00;102712.53;5072467;23;20009;-76
2022/10/06 04:48:38;;;;;;;10.52;1.90;;;7.80;99.90;;;6.89;100.00;102717.94;5074197;23;20438;-75
2022/10/06 04:50:39;;;;;;;10.02;2.17;;;7.80;99.90;;;6.91;100.00;102716.91;5072693;23;20033;-75
2022/10/06 04:52:40;;;;;;;10.20;1.73;;;7.70;99.90;;;6.91;100.00;102729.19;5048255;23;20018;-76
2022/10/06 04:54:41;;;;;;;5.40;2.30;;;7.70;99.90;;;6.89;100.00;102725.81;5074114;23;20014;-75
2022/10/06 04:56:42;;;;;;;4.20;1.83;;;7.70;99.90;;;6.87;100.00;102725.06;5074117;23;20014;-76
2022/10/06 04:58:46;;;;;;;7.90;1.95;;;7.70;99.90;;;6.87;100.00;102722.44;5072564;23;20041;-75
2022/10/06 05:00:48;;;;;;;8.20;2.03;;;7.70;99.90;;;6.88;100.00;102731.97;5072319;23;20085;-75
2022/10/06 05:02:49;;;;;;;4.70;1.70;;;7.70;99.90;;;6.87;100.00;102730.31;5074087;23;20006;-75
2022/10/06 05:04:50;;;;;;;9.13;2.25;;;7.70;99.90;;;6.85;100.00;102734.75;5072604;23;20002;-75
2022/10/06 05:06:51;;;;;;;6.78;1.92;;;7.70;99.90;;;6.84;100.00;102733.09;5074072;23;20173;-75
2022/10/06 05:09:04;;;;;;;9.40;1.75;;;7.70;99.90;;;6.82;100.00;102740.16;5074258;23;20020;-75
2022/10/06 05:11:11;;;;;;;7.22;2.58;;;7.60;99.90;;;6.80;100.00;102728.94;5073910;23;20010;-75
2022/10/06 05:13:13;;;;;;;13.55;2.30;;;7.60;99.90;;;6.77;100.00;102736.97;5072173;23;20013;-75
2022/10/06 05:15:14;;;;;;;5.05;1.85;;;7.60;99.90;;;6.79;100.00;102735.94;5072300;23;20014;-75
2022/10/06 05:17:15;;;;;;;4.05;1.25;;;7.60;99.90;;;6.82;100.00;102735.78;5073898;23;20013;-76
2022/10/06 05:19:16;;;;;;;9.00;1.80;;;7.60;99.90;;;6.77;100.00;102726.47;5073910;23;20061;-76
2022/10/06 05:21:23;;;;;;;4.60;1.95;;;7.60;99.90;;;6.78;100.00;102731.63;5074056;23;20028;-76
2022/10/06 05:23:28;;;;;;;7.15;2.08;;;7.60;99.90;;;6.74;100.00;102724.88;5074135;23;20006;-75
2022/10/06 05:25:29;;;;;;;6.43;1.77;;;7.60;99.90;;;6.75;100.00;102731.78;5072282;23;20014;-75
2022/10/06 05:27:30;;;;;;;9.45;1.95;;;7.60;99.90;;;6.75;100.00;102730.97;5074113;23;20343;-76
2022/10/06 05:29:33;;;;;;;10.35;2.17;;;7.60;99.90;;;6.73;100.00;102738.91;5074037;23;20006;-75
2022/10/06 05:31:39;;;;;;;8.43;1.85;;;7.60;99.90;;;6.75;100.00;102731.78;5072137;23;20014;-75
2022/10/06 05:33:41;;;;;;;6.40;1.77;;;7.60;99.90;;;6.73;100.00;102728.41;5072672;23;20387;-75
2022/10/06 05:35:54;;;;;;;4.68;1.63;;;7.60;99.90;;;6.79;100.00;102745.59;5072567;23;20510;-75
2022/10/06 05:37:55;;;;;;;7.78;2.08;;;7.60;99.90;;;6.74;100.00;102729.25;5072100;23;20009;-76
2022/10/06 05:39:55;;;;;;;8.85;2.72;;;7.60;99.90;;;6.78;100.00;102741.28;5072454;23;20467;-75
2022/10/06 05:41:56;;;;;;;9.07;2.53;;;7.60;99.90;;;6.81;100.00;102746.38;5072515;23;20006;-75
2022/10/06 05:43:58;;;;;;;10.23;2.85;;;7.60;99.90;;;6.85;100.00;102748.72;5074051;23;20006;-75
2022/10/06 05:46:02;;;;;;;12.73;3.63;;;7.70;99.90;;;6.81;100.00;102746.38;5072178;23;20081;-75
2022/10/06 05:48:03;;;;;;;14.73;2.97;;;7.60;99.90;;;6.83;100.00;102749.75;5072371;23;20037;-75
2022/10/06 05:50:04;;;;;;;11.52;2.60;;;7.60;99.90;;;6.79;100.00;102748.22;5072499;23;20010;-75
2022/10/06 05:52:05;;;;;;;5.78;1.90;;;7.60;99.90;;;6.71;100.00;102756.50;5071902;23;20034;-75
2022/10/06 05:54:06;;;;;;;4.82;2.17;;;7.60;99.90;;;6.62;100.00;102757.84;5072259;23;20094;-75
2022/10/06 05:56:10;;;;;;;6.60;1.92;;;7.50;99.90;;;6.58;100.00;102768.56;5096137;23;20100;-75
2022/10/06 05:58:11;;;;;;;12.65;2.78;;;7.50;99.90;;;6.52;100.00;102767.09;5073846;23;20061;-76
2022/10/06 06:00:12;;;;;;;9.15;2.42;;;7.40;99.90;;;6.49;100.00;102767.25;5072423;23;20006;-76
2022/10/06 06:02:13;;;;;;;8.30;2.30;;;7.40;99.90;;;6.46;100.00;102771.81;5072479;23;20068;-76
2022/10/06 06:04:14;;;;;;;9.85;2.50;;;7.30;99.90;;;6.45;100.00;102770.97;5073832;23;20002;-76
2022/10/06 06:06:26;;;;;;;10.30;4.10;;;7.40;99.90;;;6.45;100.00;102768.34;5073904;23;20006;-76
2022/10/06 06:08:27;;;;;;;6.47;2.40;;;7.30;99.90;;;6.47;100.00;102774.38;5072274;23;20010;-76
2022/10/06 06:10:28;;;;;;;6.97;2.33;;;7.30;99.90;;;6.49;100.00;102772.50;5072443;23;20379;-76
2022/10/06 06:12:29;;;;;;;6.75;2.50;;;7.30;99.90;;;6.44;100.00;102766.66;5073819;23;20013;-76
2022/10/06 06:16:49;;;;;;;6.93;2.08;;;7.30;99.90;;;6.42;100.00;102784.22;5073820;23;20350;-76
2022/10/06 06:18:50;;;;;;;8.35;2.38;;;7.30;99.90;;;6.42;100.00;102786.84;5073693;23;20010;-76
2022/10/06 06:21:05;;;;;;;11.80;2.70;;;7.30;99.90;;;6.41;100.00;102782.56;5073794;23;20074;-76
2022/10/06 06:23:05;;;;;;;10.82;2.80;;;7.30;99.90;;;6.42;100.00;102789.47;5048091;23;20050;-76
2022/10/06 06:25:07;;;;;;;10.93;2.83;;;7.30;99.90;;;6.39;100.00;102780.94;5065209;23;20010;-76
2022/10/06 06:27:08;;;;;;;12.18;2.50;;;7.30;99.90;;;6.44;100.00;102792.03;5070924;23;20009;-76
2022/10/06 06:29:09;;;;;;;10.63;2.85;;;7.30;99.90;;;6.40;100.00;102780.00;5072233;23;20002;-77
2022/10/06 06:31:13;;;;;;;7.28;2.78;;;7.30;99.90;;;6.42;100.00;102789.47;5072602;23;20330;-77
2022/10/06 06:33:14;;;;;;;11.45;3.53;;;7.30;99.90;;;6.39;100.00;102788.81;5072153;23;20009;-76
2022/10/06 06:35:15;;;;;;;7.20;2.28;;;7.30;99.90;;;6.44;100.00;102792.03;5070964;23;20021;-76
2022/10/06 06:37:16;;;;;;;7.70;2.72;;;7.30;99.90;;;6.44;100.00;102792.88;5089938;23;20014;-76
2022/10/06 06:39:18;;;;;;;9.35;2.72;;;7.30;99.90;;;6.45;100.00;102791.94;5096847;23;20021;-76
2022/10/06 06:41:32;;;;;;;9.23;2.45;;;7.30;99.90;;;6.45;100.00;102791.13;5097318;23;20053;-76
2022/10/06 06:43:33;;;;;;;8.20;2.40;;;7.30;99.90;;;6.43;100.00;102788.56;5071435;23;20029;-76
2022/10/06 06:45:34;;;;;;;8.90;2.15;;;7.30;99.90;;;6.45;100.00;102797.19;5097316;23;20237;-76
2022/10/06 06:47:35;;;;;;;7.63;3.03;;;7.30;99.90;;;6.45;100.00;102791.94;5096674;23;20012;-76
2022/10/06 06:49:36;;;;;;;7.47;2.22;;;7.30;99.90;;;6.49;100.00;102797.88;5070860;23;20014;-76
2022/10/06 06:51:41;;;;;;;8.55;2.60;;;7.30;99.90;;;6.48;100.00;102797.03;5096708;23;20010;-76
2022/10/06 06:53:42;;;;;;;10.18;3.05;;;7.30;99.90;;;6.46;100.00;102792.78;5071181;23;20042;-75
2022/10/06 06:55:49;;;;;;;8.23;2.60;;;7.40;99.90;;;6.50;100.00;102800.44;5070782;23;20010;-76
2022/10/06 06:57:50;;;;;;;8.60;2.95;;;7.40;99.90;;;6.52;100.00;102806.44;5071281;23;20541;-76
2022/10/06 06:59:51;;;;;;;6.75;2.38;;;7.40;99.90;;;6.55;100.00;102803.66;5096720;23;20009;-76
2022/10/06 07:01:52;;;;;;;10.35;3.30;;;7.40;99.90;;;6.57;100.00;102800.97;5070967;23;20017;-76
2022/10/06 07:03:55;;;;;;;6.30;2.05;;;7.40;99.90;;;6.67;100.00;102817.91;5097102;23;20418;-76
2022/10/06 07:06:07;;;;;;;6.60;2.35;;;7.50;99.90;;;6.74;100.00;102818.44;5097310;23;20006;-76
2022/10/06 07:08:09;;;;;;;11.13;2.30;;;7.50;99.90;;;6.75;100.00;102807.03;5098492;23;20016;-76
2022/10/06 07:10:10;;;;;;;4.95;2.08;;;7.60;99.90;;;6.77;100.00;102813.88;5098458;23;20012;-76
2022/10/06 07:12:11;;;;;;;4.18;1.85;;;7.60;99.90;;;6.76;100.00;102813.94;5048020;23;20061;-76
2022/10/06 07:14:12;;;;;;;9.45;2.58;;;7.60;99.90;;;6.80;100.00;102823.34;5098544;23;20013;-76
2022/10/06 07:25:37;;;;;;;8.30;2.72;;;7.80;99.90;;;7.09;100.00;102839.25;5077425;23;20497;-76
2022/10/06 07:27:49;;;;;;;6.88;1.70;;;7.90;99.90;;;7.12;100.00;102835.59;5073779;23;20005;-76
2022/10/06 07:29:53;;;;;;;7.82;1.80;;;8.00;99.90;;;7.21;100.00;102846.44;5074577;23;20335;-76
2022/10/06 07:31:54;;;;;;;12.10;4.10;;;8.00;99.90;;;7.25;100.00;102847.13;5099370;23;20005;-76
2022/10/06 07:33:55;;;;;;;9.85;3.60;;;8.10;99.90;;;7.27;100.00;102840.03;5073482;23;20006;-76
2022/10/06 07:35:56;;;;;;;9.57;3.63;;;8.20;99.90;;;7.37;100.00;102846.47;5073256;23;20013;-76
2022/10/06 07:38:06;;;;;;;9.63;3.78;;;8.20;99.90;;;7.41;100.00;102845.34;5072843;23;20423;-76
2022/10/06 07:40:08;;;;;;;12.82;3.50;;;8.20;99.90;;;7.43;100.00;102846.13;5099313;23;20084;-76
2022/10/06 07:42:14;;;;;;;7.65;3.78;;;8.30;99.90;;;7.48;100.00;102845.88;5048804;23;20374;-76
2022/10/06 07:44:15;;;;;;;6.60;2.42;;;8.30;99.90;;;7.57;100.00;102846.22;5074011;23;20002;-76
2022/10/06 07:46:17;;;;;;;9.00;3.83;;;8.40;99.90;;;7.63;100.00;102845.03;5073158;23;20036;-76
2022/10/06 07:48:21;;;;;;;15.18;3.90;;;8.50;99.90;;;7.67;100.00;102850.03;5099286;23;20005;-76
2022/10/06 07:50:22;;;;;;;10.53;3.57;;;8.50;99.90;;;7.74;100.00;102851.34;5099430;23;20033;-76
2022/10/06 07:52:24;;;;;;;8.55;3.50;;;8.60;99.90;;;7.85;100.00;102852.53;5073345;23;20336;-76
2022/10/06 07:54:25;;;;;;;10.27;2.42;;;8.60;99.90;;;7.87;100.00;102855.91;5099160;23;20024;-76
2022/10/06 07:56:26;;;;;;;10.55;2.83;;;8.70;99.90;;;7.93;100.00;102860.84;5073667;23;20094;-76
2022/10/06 07:58:27;;;;;;;8.75;2.90;;;8.80;99.90;;;7.96;100.00;102858.03;5099289;23;20014;-76
2022/10/06 08:00:28;;;;;;;9.13;3.20;;;8.80;99.90;;;8.07;100.00;102871.41;5073137;23;20006;-76
2022/10/06 08:02:29;;;;;;;8.48;2.90;;;8.90;99.90;;;8.12;100.00;102861.50;5099251;23;20006;-76
2022/10/06 08:04:29;;;;;;;11.25;2.78;;;8.90;99.90;;;8.17;100.00;102868.16;5099069;23;20005;-76
2022/10/06 08:06:30;;;;;;;10.25;3.65;;;9.00;99.90;;;8.25;100.00;102865.06;5048874;23;20011;-76
2022/10/06 08:08:36;;;;;;;16.25;2.97;;;9.10;99.90;;;8.32;100.00;102861.19;5073502;23;20168;-76
2022/10/06 08:10:37;;;;;;;11.75;2.60;;;9.20;99.90;;;8.41;100.00;102868.56;5074020;23;20010;-76
2022/10/06 08:12:39;;;;;;;3.58;1.55;;;9.20;99.90;;;8.47;100.00;102869.97;5099302;23;20013;-76
2022/10/06 08:14:40;;;;;;;7.05;2.33;;;9.30;99.90;;;8.56;100.00;102883.44;5098791;23;20076;-76
2022/10/06 08:16:41;;;;;;;10.75;2.38;;;9.40;99.90;;;8.62;100.00;102882.22;5099044;23;20005;-76
2022/10/06 08:18:47;;;;;;;9.10;2.00;;;9.40;99.90;;;8.65;100.00;102874.13;5098751;23;20024;-76
2022/10/06 08:20:48;;;;;;;6.53;2.20;;;9.50;99.90;;;8.74;100.00;102887.59;5073854;23;20009;-76
2022/10/06 08:22:48;;;;;;;6.97;1.92;;;9.60;99.90;;;8.83;100.00;102886.19;5099114;23;20005;-76
2022/10/06 08:24:49;;;;;;;9.15;2.00;;;9.60;99.90;;;8.85;100.00;102879.91;5098865;23;20017;-76
2022/10/06 08:26:50;;;;;;;7.63;2.03;;;9.70;99.90;;;8.98;100.00;102887.06;5073019;23;20029;-76
2022/10/06 08:28:56;;;;;;;4.75;1.02;;;9.80;99.90;;;9.02;100.00;102888.56;5073089;23;20006;-76
2022/10/06 08:31:03;;;;;;;6.20;1.60;;;9.90;99.90;;;9.10;100.00;102888.94;5073192;23;20006;-76
2022/10/06 08:33:05;;;;;;;6.05;1.73;;;10.00;99.90;;;9.19;100.00;102888.38;5097075;23;20443;-76
2022/10/06 08:35:06;;;;;;;8.88;2.03;;;10.00;99.90;;;9.28;100.00;102891.28;5072937;23;20016;-76
2022/10/06 08:37:07;;;;;;;7.80;1.85;;;10.10;99.90;;;9.36;100.00;102891.66;5072615;23;20040;-76
2022/10/06 08:39:07;;;;;;;9.38;1.80;;;10.20;99.90;;;9.45;100.00;102895.50;5098692;23;20009;-76
2022/10/06 08:41:39;;;;;;;8.68;2.05;;;10.30;99.90;;;9.56;100.00;102898.28;5098804;23;20006;-76
2022/10/06 08:43:40;;;;;;;10.52;1.85;;;10.40;99.90;;;9.65;100.00;102899.50;5073048;23;20010;-76
2022/10/06 08:45:44;;;;;;;8.40;1.95;;;10.50;99.90;;;9.77;100.00;102899.56;5098607;23;20009;-76